Hovedside
METAR-TAF:

METAR-TAF

Lufthavner :

Cayenne, Fransk Guyana

breddegrad: 04-50N, lengdegrad: 052-22W, høyde over havet: 105 m

Gjeldene værobservasjon

Denne rapporten ble laget for 22 minutter siden, klokken 19:00 UTC
Vind 12 kt fra Øst-nordøst
Temperatur 31°C
Luftfuktighet 66%
Trykk 1006 hPa
Sikt 10 km eller mer

METAR: SOCA 151900Z AUTO 06012KT 9999 ///CB 31/24 Q1006 BECMG FEW033

Tid: 16:22 (19:22 UTC)

Varsel

Denne rapporten ble laget for 3 timer og 22 minutter siden, klokken 16:00 UTC
Varsel gyldig fra 15. klokken 18 UTC til 16. klokken 18 UTC
Vind 10 kt fra Øst
Sikt 10 km eller mer
Få skyer i en høyde av 3300 ft
Blir
fra 15. klokken 21 UTC til 15. klokken 23 UTC
Vind 2 kt fra skiftende retning
Fra 16. klokken 1400 UTC
Vind 10 kt fra Øst
Sikt 10 km eller mer
Spredte skyer i en høyde av 2600 ft

TAF: SOCA 151600Z 1518/1618 08010KT 9999 FEW033 BECMG 1521/1523 VRB02KT FM161400 08010KT 9999 SCT026

Værobservasjoner og værvarsel for over 4000 flyplasser (METAR- og TAF-rapporter).

Tilgjengelige stasjoner er representert av de røde og gule prikkene på kartet.

Hold musepekeren over prikken for å se navnet på stasjonen.

Klikk så for å se værobservasjoner og -varsler.

For å forandre kartet kan du klikke på den grønne knappen med svart kryss for å zoome inn, på den grønne knappen med strek for å zoome ut, eller på de grønne pilene for å se tilstøtende kart.


METAR-TAF: